KAYS/AYS METAR and TAF weather

Enter ICAO airport designator
Station Type Date Time Source
KAYS METAR 2020/07/05 16:35 UTC NOAA

KAYS 051635Z AUTO 07007KT 10SM BKN024 BKN032 OVC055 26/23 A2997 RMK AO2 T02580229 TSNO


Station Type Date Time Source
KAYS Decoded METAR 2020/07/05 16:35 UTC NOAA

Waycross / Ware County, Ga, GA, United States (KAYS) 31-15N 082-24W 46M
Jul 05, 2020 - 12:35 PM EDT / 2020.07.05 1635 UTC
Wind: from the ENE (070 degrees) at 8 MPH (7 KT):0
Visibility: 10 mile(s):0
Sky conditions: overcast
Temperature: 78.4 F (25.8 C)
Dew Point: 73.2 F (22.9 C)
Relative Humidity: 84%
Pressure (altimeter): 29.97 in. Hg (1014 hPa)
ob: KAYS 051635Z AUTO 07007KT 10SM BKN024 BKN032 OVC055 26/23 A2997 RMK AO2 T02580229 TSNO
cycle: 16

Station Type Date Time Source
KAYS TAF UTC NOAA

Error!

Example: see airport list